Time;durP1;ratioP1;P1;durP2;ratioP2;P2;SDS_P1;SDS_P2;PMS_P1;PMS_P2;Temp;Humidity;BMP_temperature;BMP_pressure;BME280_temperature;BME280_humidity;BME280_pressure;Samples;Min_cycle;Max_cycle;Signal;HPM_P1;HPM_P2
2021/04/23 00:02:02;;;;;;;;;;;;;;;2.53;100.00;101435.03;5090365;28;20363;-68
2021/04/23 00:04:28;;;;;;;;;;;;;;;2.53;100.00;101435.03;5094194;28;19931;-68
2021/04/23 00:06:58;;;;;;;;;;;;;;;2.48;100.00;101438.72;5093741;28;19924;-68
2021/04/23 00:09:25;;;;;;;;;;;;;;;2.49;100.00;101434.25;5094297;28;20403;-68
2021/04/23 00:11:53;;;;;;;;;;;;;;;2.44;100.00;101436.22;5093247;28;19927;-68
2021/04/23 00:14:21;;;;;;;;;;;;;;;2.47;100.00;101428.94;5093732;28;19920;-68
2021/04/23 00:16:48;;;;;;;;;;;;;;;2.44;100.00;101434.41;5093511;28;19931;-68
2021/04/23 00:19:18;;;;;;;;;;;;;;;2.56;100.00;101430.41;5094125;28;19927;-68
2021/04/23 00:21:45;;;;;;;;;;;;;;;2.58;100.00;101443.75;5093682;28;20104;-67
2021/04/23 00:24:11;;;;;;;;;;;;;;;2.58;100.00;101433.03;5075372;28;19967;-68
2021/04/23 00:26:37;;;;;;;;;;;;;;;2.53;100.00;101440.38;5093689;28;19924;-68
2021/04/23 00:29:04;;;;;;;;;;;;;;;2.51;100.00;101430.59;5093342;28;20445;-68
2021/04/23 00:31:30;;;;;;;;;;;;;;;2.55;100.00;101425.97;5093525;28;19923;-67
2021/04/23 00:33:55;;;;;;;;;;;;;;;2.50;100.00;101428.81;5093468;28;19977;-68
2021/04/23 00:36:22;;;;;;;;;;;;;;;2.46;100.00;101429.88;5093572;28;20011;-67
2021/04/23 00:38:49;;;;;;;;;;;;;;;2.43;100.00;101432.66;5093434;28;19920;-68
2021/04/23 00:41:16;;;;;;;;;;;;;;;2.43;100.00;101431.78;5093461;28;19983;-68
2021/04/23 00:43:43;;;;;;;;;;;;;;;2.45;100.00;101422.75;5093183;28;20387;-68
2021/04/23 00:46:10;;;;;;;;;;;;;;;2.45;100.00;101425.44;5093005;28;19923;-68
2021/04/23 00:48:37;;;;;;;;;;;;;;;2.45;100.00;101430.78;5093377;28;19945;-68
2021/04/23 00:51:05;;;;;;;;;;;;;;;2.41;100.00;101431.84;5075057;28;19920;-68
2021/04/23 00:53:34;;;;;;;;;;;;;;;2.38;100.00;101431.06;5092226;28;19981;-68
2021/04/23 00:56:06;;;;;;;;;;;;;;;2.36;100.00;101430.25;5092979;28;20319;-67
2021/04/23 00:58:32;;;;;;;;;;;;;;;2.33;100.00;101426.75;5093047;28;19951;-68
2021/04/23 01:00:59;;;;;;;;;;;;;;;2.32;100.00;101426.81;5092932;28;20399;-67
2021/04/23 01:03:25;;;;;;;;;;;;;;;2.30;100.00;101423.31;5092475;28;19920;-67
2021/04/23 01:05:52;;;;;;;;;;;;;;;2.26;100.00;101421.66;5092400;28;19920;-68
2021/04/23 01:08:18;;;;;;;;;;;;;;;2.26;100.00;101413.63;5074875;28;19955;-67
2021/04/23 01:10:44;;;;;;;;;;;;;;;2.27;100.00;101429.66;5092768;28;19927;-68
2021/04/23 01:13:11;;;;;;;;;;;;;;;2.24;100.00;101421.72;5091969;28;19927;-67
2021/04/23 01:15:37;;;;;;;;;;;;;;;2.25;100.00;101414.56;5091680;28;19931;-68
2021/04/23 01:18:03;;;;;;;;;;;;;;;2.28;100.00;101422.47;5092649;28;19924;-67
2021/04/23 01:20:29;;;;;;;;;;;;;;;2.26;100.00;101418.97;5092667;28;19924;-68
2021/04/23 01:22:55;;;;;;;;;;;;;;;2.23;100.00;101429.81;5091849;28;19920;-67
2021/04/23 01:25:22;;;;;;;;;;;;;;;2.21;100.00;101429.88;5092228;28;19947;-69
2021/04/23 01:27:48;;;;;;;;;;;;;;;2.24;100.00;101436.91;5092396;28;19992;-67
2021/04/23 01:30:17;;;;;;;;;;;;;;;2.25;100.00;101427.97;5092608;28;19923;-67
2021/04/23 01:32:43;;;;;;;;;;;;;;;2.27;100.00;101431.44;5092000;28;20303;-67
2021/04/23 01:35:12;;;;;;;;;;;;;;;2.31;100.00;101427.72;5092126;28;19923;-67
2021/04/23 01:37:38;;;;;;;;;;;;;;;2.36;100.00;101430.25;5092399;28;19920;-68
2021/04/23 01:40:06;;;;;;;;;;;;;;;2.38;100.00;101434.63;5092087;28;20450;-69
2021/04/23 01:42:32;;;;;;;;;;;;;;;2.44;100.00;101439.75;5091876;28;20314;-68
2021/04/23 01:44:59;;;;;;;;;;;;;;;2.52;100.00;101436.81;5092168;28;19935;-67
2021/04/23 01:47:25;;;;;;;;;;;;;;;2.60;100.00;101437.41;5074045;28;19927;-68
2021/04/23 01:49:51;;;;;;;;;;;;;;;2.65;100.00;101439.94;5091949;28;19927;-68
2021/04/23 01:52:17;;;;;;;;;;;;;;;2.70;100.00;101445.09;5092014;28;19922;-69
2021/04/23 01:54:43;;;;;;;;;;;;;;;2.76;100.00;101444.88;5091812;28;19927;-69
2021/04/23 01:57:10;;;;;;;;;;;;;;;2.86;100.00;101449.00;5091150;28;19928;-69
2021/04/23 01:59:36;;;;;;;;;;;;;;;2.93;100.00;101446.94;5092118;28;20314;-69
2021/04/23 02:02:02;;;;;;;;;;;;;;;2.94;100.00;101441.53;5091841;28;19931;-69
2021/04/23 02:04:28;;;;;;;;;;;;;;;3.00;100.00;101448.44;5091833;28;19965;-70
2021/04/23 02:06:55;;;;;;;;;;;;;;;3.06;100.00;101450.91;5091677;28;19942;-68
2021/04/23 02:09:21;;;;;;;;;;;;;;;3.10;100.00;101448.97;5091486;28;19964;-69
2021/04/23 02:11:47;;;;;;;;;;;;;;;3.16;100.00;101443.38;5091643;28;20023;-68
2021/04/23 02:14:14;;;;;;;;;;;;;;;3.22;100.00;101444.94;5091605;28;19975;-69
2021/04/23 02:16:40;;;;;;;;;;;;;;;3.28;100.00;101447.38;5091197;28;19927;-69
2021/04/23 02:19:08;;;;;;;;;;;;;;;3.29;100.00;101444.63;5091471;28;19924;-69
2021/04/23 02:21:35;;;;;;;;;;;;;;;3.32;100.00;101449.88;5091331;28;19946;-69
2021/04/23 02:24:02;;;;;;;;;;;;;;;3.37;100.00;101440.75;5090650;28;20263;-69
2021/04/23 02:26:28;;;;;;;;;;;;;;;3.40;100.00;101446.91;5090876;28;19924;-68
2021/04/23 02:28:53;;;;;;;;;;;;;;;3.44;100.00;101453.03;5091499;28;19965;-69
2021/04/23 02:31:21;;;;;;;;;;;;;;;3.47;100.00;101448.38;5091350;28;19927;-68
2021/04/23 02:33:48;;;;;;;;;;;;;;;3.49;100.00;101453.72;5091080;28;19959;-68
2021/04/23 02:36:15;;;;;;;;;;;;;;;3.49;100.00;101454.59;5091062;28;19920;-69
2021/04/23 02:38:41;;;;;;;;;;;;;;;3.51;100.00;101459.88;5091428;28;19931;-68
2021/04/23 02:41:07;;;;;;;;;;;;;;;3.50;100.00;101450.97;5091274;28;19920;-68
2021/04/23 02:43:35;;;;;;;;;;;;;;;3.54;100.00;101453.53;5090940;28;20022;-69
2021/04/23 02:46:01;;;;;;;;;;;;;;;3.55;100.00;101457.97;5073064;28;19959;-68
2021/04/23 02:48:31;;;;;;;;;;;;;;;3.56;100.00;101462.41;5091232;28;19967;-68
2021/04/23 02:51:01;;;;;;;;;;;;;;;3.57;100.00;101459.66;5091032;28;19928;-69
2021/04/23 02:53:26;;;;;;;;;;;;;;;3.60;100.00;101459.53;5090448;28;19987;-68
2021/04/23 02:55:52;;;;;;;;;;;;;;;3.61;100.00;101465.78;5090665;28;20379;-69
2021/04/23 02:58:19;;;;;;;;;;;;;;;3.62;100.00;101465.72;5091112;28;19945;-68
2021/04/23 03:00:47;;;;;;;;;;;;;;;3.63;100.00;101463.91;5072871;28;19926;-68
2021/04/23 03:03:12;;;;;;;;;;;;;;;3.65;100.00;101468.28;5090719;28;20022;-68
2021/04/23 03:05:40;;;;;;;;;;;;;;;3.65;100.00;101473.63;5090775;28;19927;-68
2021/04/23 03:08:06;;;;;;;;;;;;;;;3.65;100.00;101470.09;5072969;28;19920;-68
2021/04/23 03:10:34;;;;;;;;;;;;;;;3.65;100.00;101475.47;5091131;28;19920;-68
2021/04/23 03:13:03;;;;;;;;;;;;;;;3.67;100.00;101473.56;5090486;28;19981;-68
2021/04/23 03:15:28;;;;;;;;;;;;;;;3.66;100.00;101474.50;5090889;28;19959;-69
2021/04/23 03:17:55;;;;;;;;;;;;;;;3.67;100.00;101478.94;5090745;28;19943;-68
2021/04/23 03:20:23;;;;;;;;;;;;;;;3.71;100.00;101483.25;5091089;28;19927;-68
2021/04/23 03:22:49;;;;;;;;;;;;;;;3.72;100.00;101473.41;5090691;28;20027;-69
2021/04/23 03:25:15;;;;;;;;;;;;;;;3.73;100.00;101475.13;5072645;28;19996;-69
2021/04/23 03:27:42;;;;;;;;;;;;;;;3.73;100.00;101476.03;5090787;28;19919;-68
2021/04/23 03:30:10;;;;;;;;;;;;;;;3.73;100.00;101478.72;5072430;28;19927;-68
2021/04/23 03:32:36;;;;;;;;;;;;;;;3.77;100.00;101490.19;5090592;28;20424;-68
2021/04/23 03:35:02;;;;;;;;;;;;;;;3.77;100.00;101476.75;5072389;28;19924;-68
2021/04/23 03:37:28;;;;;;;;;;;;;;;3.78;100.00;101489.25;5091718;28;19927;-68
2021/04/23 03:39:55;;;;;;;;;;;;;;;3.79;100.00;101486.50;5076561;28;19967;-68
2021/04/23 03:42:20;;;;;;;;;;;;;;;3.81;100.00;101486.47;5094572;28;20017;-68
2021/04/23 03:44:46;;;;;;;;;;;;;;;3.82;100.00;101496.25;5094339;28;20366;-68
2021/04/23 03:47:12;;;;;;;;;;;;;;;3.82;100.00;101491.75;5094188;28;19920;-67
2021/04/23 03:49:38;;;;;;;;;;;;;;;3.83;100.00;101503.38;5094460;28;19985;-68
2021/04/23 03:52:04;;;;;;;;;;;;;;;3.81;100.00;101492.69;5094346;28;19924;-67
2021/04/23 03:54:30;;;;;;;;;;;;;;;3.85;100.00;101497.00;5093613;28;19963;-67
2021/04/23 03:56:57;;;;;;;;;;;;;;;3.84;100.00;101497.94;5094010;28;19923;-67
2021/04/23 03:59:23;;;;;;;;;;;;;;;3.87;100.00;101496.06;5094339;28;19920;-68
2021/04/23 04:01:49;;;;;;;;;;;;;;;3.88;100.00;101493.31;5093934;28;20447;-67
2021/04/23 04:04:16;;;;;;;;;;;;;;;3.90;100.00;101498.63;5093534;28;21062;-69
2021/04/23 04:06:42;;;;;;;;;;;;;;;3.89;100.00;101502.25;5094042;28;19924;-68
2021/04/23 04:09:08;;;;;;;;;;;;;;;3.89;100.00;101499.56;5093983;28;19936;-68
2021/04/23 04:11:34;;;;;;;;;;;;;;;3.90;100.00;101504.88;5093950;28;19924;-68
2021/04/23 04:14:00;;;;;;;;;;;;;;;3.94;100.00;101505.63;5093194;28;19925;-68
2021/04/23 04:16:26;;;;;;;;;;;;;;;3.94;100.00;101506.50;5093848;28;19969;-68
2021/04/23 04:18:52;;;;;;;;;;;;;;;3.93;100.00;101507.44;5094086;28;19923;-68
2021/04/23 04:21:18;;;;;;;;;;;;;;;3.96;100.00;101517.19;5094181;28;19931;-70
2021/04/23 04:23:44;;;;;;;;;;;;;;;3.97;100.00;101505.50;5092618;28;19970;-67
2021/04/23 04:26:10;;;;;;;;;;;;;;;3.97;100.00;101510.88;5093602;28;20034;-68
2021/04/23 04:28:36;;;;;;;;;;;;;;;3.96;100.00;101509.13;5093375;28;19924;-69
2021/04/23 04:31:02;;;;;;;;;;;;;;;3.96;100.00;101507.31;5093602;28;19950;-68
2021/04/23 04:33:28;;;;;;;;;;;;;;;3.97;100.00;101518.94;5093652;28;19960;-69
2021/04/23 04:35:54;;;;;;;;;;;;;;;3.98;100.00;101520.66;5093461;28;19925;-69
2021/04/23 04:38:20;;;;;;;;;;;;;;;4.01;100.00;101517.88;5093849;28;19930;-69
2021/04/23 04:40:47;;;;;;;;;;;;;;;4.02;100.00;101514.22;5093801;28;19925;-68
2021/04/23 04:43:14;;;;;;;;;;;;;;;4.02;100.00;101520.50;5093807;28;19931;-70
2021/04/23 04:45:41;;;;;;;;;;;;;;;3.98;100.00;101515.28;5093074;28;19925;-69
2021/04/23 04:48:08;;;;;;;;;;;;;;;4.00;100.00;101521.50;5092456;28;20303;-69
2021/04/23 04:50:35;;;;;;;;;;;;;;;4.02;100.00;101520.50;5093475;28;20367;-68
2021/04/23 04:53:02;;;;;;;;;;;;;;;4.06;100.00;101515.84;5092343;28;20299;-68
2021/04/23 04:55:28;;;;;;;;;;;;;;;4.08;100.00;101523.88;5092018;28;19928;-67
2021/04/23 04:57:54;;;;;;;;;;;;;;;4.06;100.00;101521.22;5092439;28;20039;-67
2021/04/23 05:00:21;;;;;;;;;;;;;;;4.09;100.00;101526.50;5075239;28;20394;-67
2021/04/23 05:02:47;;;;;;;;;;;;;;;4.10;100.00;101522.88;5091745;28;19924;-67
2021/04/23 05:05:15;;;;;;;;;;;;;;;4.12;100.00;101520.97;5090546;28;20461;-67
2021/04/23 05:07:41;;;;;;;;;;;;;;;4.07;100.00;101533.72;5088905;28;19960;-68
2021/04/23 05:10:08;;;;;;;;;;;;;;;4.13;100.00;101530.81;5092755;28;20333;-67
2021/04/23 05:12:33;;;;;;;;;;;;;;;4.14;100.00;101539.72;5092524;28;20302;-68
2021/04/23 05:14:59;;;;;;;;;;;;;;;4.14;100.00;101543.31;5092397;28;19924;-68
2021/04/23 05:17:25;;;;;;;;;;;;;;;4.12;100.00;101542.47;5056886;28;19955;-67
2021/04/23 05:19:51;;;;;;;;;;;;;;;4.17;100.00;101535.09;5074312;28;20383;-68
2021/04/23 05:22:18;;;;;;;;;;;;;;;4.22;100.00;101540.28;5092192;28;19967;-68
2021/04/23 05:24:43;;;;;;;;;;;;;;;4.26;100.00;101541.03;5091723;28;20311;-68
2021/04/23 05:27:09;;;;;;;;;;;;;;;4.23;100.00;101541.16;5091690;28;19954;-67
2021/04/23 05:29:35;;;;;;;;;;;;;;;4.29;100.00;101555.22;5091963;28;19924;-69
2021/04/23 05:32:02;;;;;;;;;;;;;;;4.36;100.00;101558.53;5091038;28;19935;-69
2021/04/23 05:34:28;;;;;;;;;;;;;;;4.36;100.00;101555.84;5092060;28;20321;-69
2021/04/23 05:36:54;;;;;;;;;;;;;;;4.33;100.00;101567.59;5073789;28;19993;-68
2021/04/23 05:39:20;;;;;;;;;;;;;;;4.38;100.00;101570.06;5092126;28;20335;-68
2021/04/23 05:41:46;;;;;;;;;;;;;;;4.47;100.00;101568.84;5091977;28;19958;-67
2021/04/23 05:44:12;;;;;;;;;;;;;;;4.51;100.00;101565.94;5091585;28;19924;-67
2021/04/23 05:46:38;;;;;;;;;;;;;;;4.53;100.00;101565.91;5091803;28;20275;-67
2021/04/23 05:49:04;;;;;;;;;;;;;;;4.59;100.00;101567.44;5089142;28;19928;-69
2021/04/23 05:51:30;;;;;;;;;;;;;;;4.72;100.00;101568.66;5086811;28;19924;-69
2021/04/23 05:53:56;;;;;;;;;;;;;;;4.78;100.00;101573.75;5091099;28;20420;-69
2021/04/23 05:56:23;;;;;;;;;;;;;;;4.81;100.00;101567.38;5090946;28;19924;-69
2021/04/23 05:58:49;;;;;;;;;;;;;;;4.85;100.00;101563.59;5091293;28;20394;-69
2021/04/23 06:01:15;;;;;;;;;;;;;;;4.93;100.00;101563.28;5090560;28;19955;-69
2021/04/23 06:03:41;;;;;;;;;;;;;;;4.99;100.00;101560.31;5072894;28;20391;-69
2021/04/23 06:06:07;;;;;;;;;;;;;;;5.09;100.00;101564.34;5091021;28;19924;-70
2021/04/23 06:08:32;;;;;;;;;;;;;;;5.22;100.00;101561.09;5092037;28;19977;-69
2021/04/23 06:10:58;;;;;;;;;;;;;;;5.38;100.00;101578.28;5073100;28;19928;-69
2021/04/23 06:13:25;;;;;;;;;;;;;;;5.41;100.00;101575.47;5091161;28;20346;-69
2021/04/23 06:15:51;;;;;;;;;;;;;;;5.40;100.00;101576.41;5090207;28;19947;-69
2021/04/23 06:18:17;;;;;;;;;;;;;;;5.33;100.00;101569.53;5091375;28;19924;-70
2021/04/23 06:20:43;;;;;;;;;;;;;;;5.54;100.00;101570.38;5091270;28;19962;-69
2021/04/23 06:23:09;;;;;;;;;;;;;;;5.67;100.00;101578.78;5090920;28;20357;-69
2021/04/23 06:25:35;;;;;;;;;;;;;;;5.64;100.00;101578.91;5090552;28;19928;-68
2021/04/23 06:28:02;;;;;;;;;;;;;;;5.66;100.00;101583.25;5091219;28;20299;-70
2021/04/23 06:30:30;;;;;;;;;;;;;;;5.63;100.00;101575.34;5090548;28;20426;-70
2021/04/23 06:32:57;;;;;;;;;;;;;;;5.82;100.00;101582.56;5088183;28;19943;-70
2021/04/23 06:35:25;;;;;;;;;;;;;;;6.03;100.00;101591.47;5089518;28;19947;-70
2021/04/23 06:37:51;;;;;;;;;;;;;;;6.19;100.00;101580.81;5089929;28;20418;-70
2021/04/23 06:40:17;;;;;;;;;;;;;;;6.26;100.00;101589.47;5091149;28;19931;-69
2021/04/23 06:42:43;;;;;;;;;;;;;;;6.14;100.00;101594.50;5090479;28;19977;-70
2021/04/23 06:45:11;;;;;;;;;;;;;;;6.30;100.00;101585.66;5090597;28;19939;-70
2021/04/23 06:47:38;;;;;;;;;;;;;;;6.49;100.00;101585.63;5090824;28;20279;-70
2021/04/23 06:50:05;;;;;;;;;;;;;;;6.76;100.00;101585.16;5072558;28;19981;-70
2021/04/23 06:52:31;;;;;;;;;;;;;;;6.82;100.00;101584.84;5090276;28;19924;-70
2021/04/23 06:54:57;;;;;;;;;;;;;;;7.03;100.00;101591.81;5089948;28;19931;-70
2021/04/23 06:57:23;;;;;;;;;;;;;;;7.42;100.00;101588.91;5090242;28;20409;-70
2021/04/23 06:59:49;;;;;;;;;;;;;;;7.82;100.00;101597.53;5090694;28;19924;-70
2021/04/23 07:02:15;;;;;;;;;;;;;;;7.86;100.00;101596.41;5090134;28;19964;-69
2021/04/23 07:04:41;;;;;;;;;;;;;;;7.85;100.00;101598.22;5090401;28;19931;-69
2021/04/23 07:07:07;;;;;;;;;;;;;;;7.73;100.00;101593.50;5089927;28;20028;-68
2021/04/23 07:09:33;;;;;;;;;;;;;;;7.79;100.00;101597.69;5087570;28;20413;-69
2021/04/23 07:12:01;;;;;;;;;;;;;;;7.71;100.00;101596.28;5092484;28;19931;-69
2021/04/23 07:14:27;;;;;;;;;;;;;;;7.54;100.00;101589.09;5093799;28;20001;-68
2021/04/23 07:16:52;;;;;;;;;;;;;;;7.46;100.00;101595.91;5093972;28;20387;-68
2021/04/23 07:19:18;;;;;;;;;;;;;;;7.18;100.00;101602.78;5094543;28;19928;-68
2021/04/23 07:21:45;;;;;;;;;;;;;;;6.95;100.00;101599.47;5094476;28;20422;-70
2021/04/23 07:24:11;;;;;;;;;;;;;;;7.78;100.00;101602.22;5092798;28;19951;-70
2021/04/23 07:26:37;;;;;;;;;;;;;;;8.97;100.00;101608.94;5093549;28;20019;-69
2021/04/23 07:29:03;;;;;;;;;;;;;;;9.94;100.00;101604.75;5093830;28;20661;-69
2021/04/23 07:31:29;;;;;;;;;;;;;;;9.97;100.00;101603.66;5094273;28;19963;-69
2021/04/23 07:33:56;;;;;;;;;;;;;;;9.51;100.00;101592.09;5093539;28;20055;-68
2021/04/23 07:36:22;;;;;;;;;;;;;;;9.22;100.00;101596.63;5093507;28;20367;-69
2021/04/23 07:38:49;;;;;;;;;;;;;;;8.86;100.00;101597.88;5093439;28;19935;-69
2021/04/23 07:41:14;;;;;;;;;;;;;;;8.50;100.00;101599.97;5094252;28;19931;-69
2021/04/23 07:43:40;;;;;;;;;;;;;;;8.44;100.00;101600.28;5093616;28;19924;-69
2021/04/23 07:46:06;;;;;;;;;;;;;;;9.27;100.00;101607.16;5093565;28;19968;-69
2021/04/23 07:48:32;;;;;;;;;;;;;;;9.89;100.00;101602.31;5094275;28;19951;-70
2021/04/23 07:50:58;;;;;;;;;;;;;;;10.91;99.28;101594.72;5093577;28;20209;-69
2021/04/23 07:53:24;;;;;;;;;;;;;;;11.07;94.56;101610.81;5093006;28;19966;-69
2021/04/23 07:55:50;;;;;;;;;;;;;;;11.72;89.35;101604.41;5075443;28;19924;-69
2021/04/23 07:58:16;;;;;;;;;;;;;;;11.08;90.05;101607.13;5093821;28;19925;-69
2021/04/23 08:00:42;;;;;;;;;;;;;;;10.45;92.74;101615.00;5092938;28;19938;-69
2021/04/23 08:03:08;;;;;;;;;;;;;;;10.35;95.01;101619.28;5080242;28;19952;-68
2021/04/23 08:05:34;;;;;;;;;;;;;;;11.05;94.24;101608.22;5073416;28;19931;-68
2021/04/23 08:08:01;;;;;;;;;;;;;;;10.98;93.78;101601.50;5093119;28;19931;-68
2021/04/23 08:10:27;;;;;;;;;;;;;;;10.46;93.53;101608.63;5092606;28;19932;-69
2021/04/23 08:12:54;;;;;;;;;;;;;;;10.05;97.25;101617.59;5093048;28;19973;-69
2021/04/23 08:15:20;;;;;;;;;;;;;;;9.47;100.00;101627.59;5093221;28;19924;-69
2021/04/23 08:17:46;;;;;;;;;;;;;;;8.90;100.00;101621.09;5090289;28;19932;-68
2021/04/23 08:20:13;;;;;;;;;;;;;;;8.59;100.00;101622.03;5078997;28;20443;-68
2021/04/23 08:22:38;;;;;;;;;;;;;;;9.46;100.00;101620.41;5092574;28;19935;-68
2021/04/23 08:25:05;;;;;;;;;;;;;;;10.28;98.54;101628.78;5092311;28;19932;-68
2021/04/23 08:27:31;;;;;;;;;;;;;;;11.10;93.13;101618.75;5093331;28;19924;-68
2021/04/23 08:29:58;;;;;;;;;;;;;;;11.29;90.02;101623.81;5093123;28;19930;-69
2021/04/23 08:32:23;;;;;;;;;;;;;;;11.93;83.23;101630.19;5092783;28;19979;-69
2021/04/23 08:34:49;;;;;;;;;;;;;;;11.73;76.85;101625.19;5092728;28;19924;-69
2021/04/23 08:37:15;;;;;;;;;;;;;;;11.98;79.54;101628.03;5092730;28;19928;-69
2021/04/23 08:39:41;;;;;;;;;;;;;;;12.28;73.82;101629.47;5093069;28;19928;-69
2021/04/23 08:42:07;;;;;;;;;;;;;;;11.79;77.87;101632.03;5092640;28;19935;-69
2021/04/23 08:44:33;;;;;;;;;;;;;;;11.04;84.08;101633.66;5092190;28;19977;-69
2021/04/23 08:47:00;;;;;;;;;;;;;;;10.48;86.40;101628.38;5091499;28;19935;-69
2021/04/23 08:49:26;;;;;;;;;;;;;;;11.41;88.28;101630.22;5092372;28;20008;-68
2021/04/23 08:51:52;;;;;;;;;;;;;;;11.67;83.66;101630.22;5090686;28;19971;-68
2021/04/23 08:54:18;;;;;;;;;;;;;;;13.07;79.43;101628.00;5092383;28;19977;-68
2021/04/23 08:56:44;;;;;;;;;;;;;;;13.53;65.56;101628.13;5092053;28;19963;-68
2021/04/23 08:59:10;;;;;;;;;;;;;;;14.09;63.13;101624.53;5092532;28;19928;-69
2021/04/23 09:01:36;;;;;;;;;;;;;;;13.17;64.04;101632.72;5074283;28;19924;-69
2021/04/23 09:04:03;;;;;;;;;;;;;;;12.55;71.00;101629.28;5091543;28;20217;-69
2021/04/23 09:06:30;;;;;;;;;;;;;;;12.53;72.21;101634.84;5092262;28;19935;-69
2021/04/23 09:09:04;;;;;;;;;;;;;;;12.85;71.27;101634.25;5092564;28;19924;-69
2021/04/23 09:11:33;;;;;;;;;;;;;;;12.47;71.27;101643.47;5091753;28;19932;-69
2021/04/23 09:14:00;;;;;;;;;;;;;;;12.92;66.23;101629.19;5086671;28;19928;-69
2021/04/23 09:16:45;;;;;;;;;;;;;;;14.04;66.61;101626.75;5107751;28;19928;-69
2021/04/23 09:19:17;;;;;;;;;;;;;;;14.65;61.20;101625.44;5073599;28;19936;-69
2021/04/23 09:21:47;;;;;;;;;;;;;;;13.03;60.58;101636.53;5074430;28;19970;-69
2021/04/23 09:24:12;;;;;;;;;;;;;;;12.60;65.31;101634.34;5091452;28;19928;-70
2021/04/23 09:26:39;;;;;;;;;;;;;;;13.23;63.83;101627.66;5092117;28;19928;-68
2021/04/23 09:29:06;;;;;;;;;;;;;;;13.75;64.55;101627.28;5092043;28;19959;-68
2021/04/23 09:31:33;;;;;;;;;;;;;;;14.10;59.65;101626.28;5074109;28;19924;-69
2021/04/23 09:33:59;;;;;;;;;;;;;;;12.58;60.95;101633.63;5091276;28;19963;-69
2021/04/23 09:36:27;;;;;;;;;;;;;;;13.06;62.54;101633.56;5091091;28;19974;-69
2021/04/23 09:39:17;;;;;;;;;;;;;;;13.95;56.18;101630.25;5091126;28;19924;-69
2021/04/23 09:41:43;;;;;;;;;;;;;;;13.52;56.97;101632.72;5081348;28;19924;-69
2021/04/23 09:44:25;;;;;;;;;;;;;;;12.61;58.96;101639.69;5091049;28;19978;-69
2021/04/23 09:46:56;;;;;;;;;;;;;;;12.41;62.08;101622.13;5107185;28;19924;-69
2021/04/23 09:49:22;;;;;;;;;;;;;;;13.62;56.49;101624.66;5092038;28;19956;-69
2021/04/23 09:51:49;;;;;;;;;;;;;;;14.22;54.38;101625.25;5091194;28;19935;-69
2021/04/23 09:54:16;;;;;;;;;;;;;;;13.73;53.75;101632.88;5091494;28;19927;-69
2021/04/23 09:56:44;;;;;;;;;;;;;;;13.19;52.56;101641.66;5087542;28;19925;-69
2021/04/23 09:59:17;;;;;;;;;;;;;;;14.23;52.42;101634.34;5071299;28;20214;-69
2021/04/23 10:01:57;;;;;;;;;;;;;;;14.09;53.10;101646.38;5063137;28;20393;-69
2021/04/23 10:04:25;;;;;;;;;;;;;;;14.49;50.09;101640.34;5090931;28;19924;-69
2021/04/23 10:07:07;;;;;;;;;;;;;;;15.24;48.96;101634.97;5091290;28;20445;-69
2021/04/23 10:09:33;;;;;;;;;;;;;;;15.41;47.77;101633.50;5091006;28;20287;-70
2021/04/23 10:11:59;;;;;;;;;;;;;;;14.78;47.70;101626.13;5090274;28;19924;-69
2021/04/23 10:14:25;;;;;;;;;;;;;;;14.40;49.22;101639.25;5090618;28;20000;-69
2021/04/23 10:16:58;;;;;;;;;;;;;;;14.34;49.97;101641.63;5090882;28;20375;-69
2021/04/23 10:19:24;;;;;;;;;;;;;;;15.36;49.53;101622.97;5091071;28;20398;-69
2021/04/23 10:21:50;;;;;;;;;;;;;;;15.32;47.16;101612.44;5090779;28;19924;-69
2021/04/23 10:24:17;;;;;;;;;;;;;;;14.08;49.05;101636.44;5090451;28;19970;-69
2021/04/23 10:26:44;;;;;;;;;;;;;;;13.62;48.85;101634.72;5090646;28;19933;-68
2021/04/23 10:29:11;;;;;;;;;;;;;;;14.78;48.23;101642.53;5090524;28;20073;-68
2021/04/23 10:31:37;;;;;;;;;;;;;;;15.69;49.20;101637.41;5091125;28;20398;-68
2021/04/23 10:34:03;;;;;;;;;;;;;;;15.28;45.80;101632.84;5090228;28;20219;-69
2021/04/23 10:36:30;;;;;;;;;;;;;;;16.26;44.26;101636.09;5075560;28;19928;-68
2021/04/23 10:38:56;;;;;;;;;;;;;;;16.01;42.63;101630.09;5090272;28;20022;-68
2021/04/23 10:41:23;;;;;;;;;;;;;;;16.19;42.23;101631.19;5091025;28;20395;-68
2021/04/23 10:43:51;;;;;;;;;;;;;;;16.20;43.17;101635.63;5072086;28;19928;-69
2021/04/23 10:46:17;;;;;;;;;;;;;;;16.43;42.14;101634.53;5090567;28;19924;-68
2021/04/23 10:48:44;;;;;;;;;;;;;;;16.87;42.02;101630.41;5091031;28;20375;-70
2021/04/23 10:51:11;;;;;;;;;;;;;;;15.98;43.16;101633.09;5105895;28;20445;-69
2021/04/23 10:53:43;;;;;;;;;;;;;;;16.03;42.11;101633.56;5089896;28;20487;-69
2021/04/23 10:56:17;;;;;;;;;;;;;;;16.78;42.55;101631.25;5083947;28;19950;-68
2021/04/23 10:58:44;;;;;;;;;;;;;;;17.71;41.19;101630.75;5090546;28;19932;-69
2021/04/23 11:01:23;;;;;;;;;;;;;;;16.82;38.44;101629.09;5090182;28;19928;-69
2021/04/23 11:03:57;;;;;;;;;;;;;;;16.42;41.22;101635.53;5106050;28;19928;-69
2021/04/23 11:06:27;;;;;;;;;;;;;;;15.26;41.72;101635.72;5105760;28;20050;-68
2021/04/23 11:09:04;;;;;;;;;;;;;;;13.60;44.84;101631.22;5090743;28;19924;-70
2021/04/23 11:11:30;;;;;;;;;;;;;;;12.61;46.11;101630.66;5089938;28;19924;-69
2021/04/23 11:14:17;;;;;;;;;;;;;;;12.98;45.33;101628.69;5090669;28;19931;-68
2021/04/23 11:16:43;;;;;;;;;;;;;;;14.46;42.89;101642.50;5098567;28;19970;-69
2021/04/23 11:19:39;;;;;;;;;;;;;;;14.89;42.07;101617.03;5090286;28;20375;-68
2021/04/23 11:22:09;;;;;;;;;;;;;;;15.97;40.10;101636.88;5047476;28;19964;-68
2021/04/23 11:24:36;;;;;;;;;;;;;;;16.33;37.44;101635.38;5081227;28;19924;-68
2021/04/23 11:27:11;;;;;;;;;;;;;;;14.21;40.79;101644.50;5074118;28;19936;-69
2021/04/23 11:29:40;;;;;;;;;;;;;;;13.66;41.90;101644.41;5090563;28;19939;-69
2021/04/23 11:32:07;;;;;;;;;;;;;;;13.27;44.40;101639.22;5090151;28;20427;-69
2021/04/23 11:34:35;;;;;;;;;;;;;;;14.31;43.97;101647.34;5089757;28;19928;-68
2021/04/23 11:37:02;;;;;;;;;;;;;;;14.88;40.94;101626.22;5090216;28;19924;-68
2021/04/23 11:39:31;;;;;;;;;;;;;;;15.13;41.74;101646.84;5105913;28;19924;-69
2021/04/23 11:42:12;;;;;;;;;;;;;;;16.36;39.56;101632.34;5089708;28;19924;-68
2021/04/23 11:44:40;;;;;;;;;;;;;;;15.00;39.65;101646.16;5088593;28;19924;-68
2021/04/23 11:47:05;;;;;;;;;;;;;;;13.62;40.22;101642.91;5090171;28;19985;-68
2021/04/23 11:49:32;;;;;;;;;;;;;;;12.74;41.87;101647.81;5090284;28;20291;-68
2021/04/23 11:52:01;;;;;;;;;;;;;;;13.90;42.33;101647.88;5090126;28;19924;-68
2021/04/23 11:54:30;;;;;;;;;;;;;;;14.13;40.54;101653.31;5090611;28;19931;-68
2021/04/23 11:56:56;;;;;;;;;;;;;;;13.73;42.08;101648.34;5069629;28;19925;-68
2021/04/23 11:59:22;;;;;;;;;;;;;;;13.64;43.28;101649.09;5054492;28;20050;-68
2021/04/23 12:01:48;;;;;;;;;;;;;;;14.02;42.77;101662.38;5093044;28;19932;-68
2021/04/23 12:04:14;;;;;;;;;;;;;;;13.72;40.68;101649.34;5093653;28;19928;-69
2021/04/23 12:06:40;;;;;;;;;;;;;;;14.49;39.55;101647.69;5093189;28;19924;-69
2021/04/23 12:09:15;;;;;;;;;;;;;;;13.70;38.82;101656.81;5093405;28;19932;-69
2021/04/23 12:11:40;;;;;;;;;;;;;;;14.21;38.16;101652.69;5093611;28;20391;-68
2021/04/23 12:14:06;;;;;;;;;;;;;;;15.65;38.69;101643.31;5093341;28;19971;-69
2021/04/23 12:16:32;;;;;;;;;;;;;;;15.80;36.49;101625.53;5093221;28;19924;-69
2021/04/23 12:19:00;;;;;;;;;;;;;;;14.43;37.01;101637.25;5100404;28;19946;-74
2021/04/23 12:21:27;;;;;;;;;;;;;;;14.16;36.51;101644.00;5100262;28;19930;-68
2021/04/23 12:23:53;;;;;;;;;;;;;;;14.25;37.30;101651.44;5106908;28;20316;-68
2021/04/23 12:26:19;;;;;;;;;;;;;;;14.61;38.30;101643.06;5105933;28;20435;-68
2021/04/23 12:28:47;;;;;;;;;;;;;;;15.92;37.94;101644.63;5109201;28;19930;-68
2021/04/23 12:31:16;;;;;;;;;;;;;;;16.17;35.30;101643.28;5093427;28;19924;-67
2021/04/23 12:33:43;;;;;;;;;;;;;;;16.01;35.28;101635.59;5074332;28;20364;-67
2021/04/23 12:36:11;;;;;;;;;;;;;;;16.87;34.67;101633.13;5109433;27;19928;-67